Main page
METAR-TAF:

METAR-TAF

Airports :

Oran Tafraoui Airport

Tafraoui, Algeria

latitude: 35-32-33N, longitude: 000-31-56W, elevation: 112 m

Current weather observation

The report was made 1 hour and 18 minutes ago, at 02:00 UTC
Calm wind
Temperature 19°C
Humidity 83%
Pressure 1022 hPa
Visibility: 6000 m
Few clouds at a height of 1300 ft
Scattered clouds at a height of 20000 ft

METAR: DAOL 260200Z 00000KT 6000 FEW013 SCT200 19/16 Q1022

Time: 04:18 (03:18 UTC)


TAF: missing

Weather observations and forecasts of more than 4000 airports (METAR and TAF reports).

The available stations are represented by yellow and red dots on the map.

Hover mouse over dot to see the name of the station.

Then click to see weather observations and forecasts.

To change the map : click on the green buttons with a black cross to zoom in, on the green button with a dash to zoom out, or on the green arrows for adjacent maps.


METAR-TAF: